createdAt,value
2019-02-22T00:03:49.558Z,99683.58
2019-02-22T00:08:55.803Z,99680.95
2019-02-22T00:14:02.391Z,99678.64
2019-02-22T00:19:08.283Z,99678.16
2019-02-22T00:24:14.042Z,99678.03
2019-02-22T00:29:19.743Z,99681.14
2019-02-22T00:34:25.551Z,99673.90
2019-02-22T00:39:31.349Z,99665.39
2019-02-22T00:44:37.369Z,99664.03
2019-02-22T00:49:43.029Z,99649.45
2019-02-22T00:54:49.062Z,99646.15
2019-02-22T00:59:55.373Z,99641.40
2019-02-22T01:05:01.413Z,99642.22
2019-02-22T01:10:07.203Z,99639.53
2019-02-22T01:15:13.066Z,99640.16
2019-02-22T01:20:19.172Z,99639.17
2019-02-22T01:25:25.033Z,99638.53
2019-02-22T01:30:30.729Z,99633.03
2019-02-22T01:35:36.491Z,99629.59
2019-02-22T01:40:44.076Z,99621.10
2019-02-22T01:45:50.506Z,99624.86
2019-02-22T01:50:56.226Z,99625.83
2019-02-22T01:56:02.149Z,99620.27
2019-02-22T02:01:08.186Z,99620.53
2019-02-22T02:06:14.598Z,99613.34
2019-02-22T02:11:20.334Z,99610.40
2019-02-22T02:16:26.246Z,99609.41
2019-02-22T02:21:32.330Z,99607.22
2019-02-22T02:26:38.836Z,99605.91
2019-02-22T02:31:44.629Z,99600.97
2019-02-22T02:36:51.026Z,99600.22
2019-02-22T02:41:57.079Z,99604.28
2019-02-22T02:47:02.827Z,99606.91
2019-02-22T02:52:08.501Z,99607.52
2019-02-22T02:57:14.156Z,99609.03
2019-02-22T03:02:25.051Z,99611.79
2019-02-22T03:07:58.643Z,99610.84
2019-02-22T03:13:04.880Z,99610.90
2019-02-22T03:18:10.728Z,99615.59
2019-02-22T03:23:16.434Z,99617.77
2019-02-22T03:28:22.080Z,99615.15
2019-02-22T03:33:28.124Z,99615.08
2019-02-22T03:38:34.059Z,99620.48
2019-02-22T03:43:39.927Z,99626.55
2019-02-22T03:48:46.123Z,99634.60
2019-02-22T03:54:00.170Z,99640.64
2019-02-22T03:59:05.953Z,99642.85
2019-02-22T04:04:12.152Z,99648.97
2019-02-22T04:09:18.276Z,99653.83
2019-02-22T04:14:24.021Z,99657.39
2019-02-22T04:19:33.106Z,99656.13
2019-02-22T04:24:39.244Z,99675.38
2019-02-22T04:29:45.408Z,99689.43
2019-02-22T04:34:51.396Z,99699.90
2019-02-22T04:39:57.355Z,99694.61
2019-02-22T04:45:03.487Z,99724.43
2019-02-22T04:50:09.999Z,99727.96
2019-02-22T04:55:16.095Z,99737.48
2019-02-22T05:00:22.083Z,99776.53
2019-02-22T05:05:27.783Z,99820.00
2019-02-22T05:10:33.685Z,99837.34
2019-02-22T05:15:39.427Z,99858.35
2019-02-22T05:20:45.323Z,99869.80
2019-02-22T05:25:51.190Z,99907.46
2019-02-22T05:30:56.917Z,99928.38
2019-02-22T05:36:02.746Z,99940.01
2019-02-22T05:41:08.440Z,99963.58
2019-02-22T05:46:14.352Z,99980.99
2019-02-22T05:51:20.149Z,100006.09
2019-02-22T05:56:25.826Z,100039.54
2019-02-22T06:01:31.439Z,100055.94
2019-02-22T06:06:37.587Z,100073.92
2019-02-22T06:11:42.407Z,100104.72
2019-02-22T06:16:48.042Z,100127.14
2019-02-22T06:21:54.032Z,100130.42
2019-02-22T06:26:59.811Z,100159.63
2019-02-22T06:32:05.617Z,100182.50
2019-02-22T06:37:11.767Z,100218.91
2019-02-22T06:42:17.412Z,100246.91
2019-02-22T06:47:23.332Z,100260.59
2019-02-22T06:52:29.758Z,100278.83
2019-02-22T06:57:35.814Z,100275.84
2019-02-22T07:02:41.769Z,100304.80
2019-02-22T07:07:47.636Z,100346.76
2019-02-22T07:13:00.687Z,100356.11
2019-02-22T07:18:06.683Z,100387.88
2019-02-22T07:23:12.794Z,100405.28
2019-02-22T07:28:18.519Z,100416.73
2019-02-22T07:33:24.414Z,100435.79
2019-02-22T07:38:30.062Z,100462.16
2019-02-22T07:43:35.918Z,100500.62
2019-02-22T07:48:41.832Z,100516.17
2019-02-22T07:53:48.093Z,100515.81
2019-02-22T07:58:53.821Z,100540.30
2019-02-22T08:03:59.718Z,100545.89
2019-02-22T08:09:06.151Z,100566.27
2019-02-22T08:14:12.203Z,100583.16
2019-02-22T08:19:18.057Z,100609.50
2019-02-22T08:24:25.963Z,100624.52
2019-02-22T08:29:31.791Z,100635.77
2019-02-22T08:34:37.509Z,100637.75
2019-02-22T08:39:43.634Z,100650.52
2019-02-22T08:44:49.491Z,100662.53
2019-02-22T08:49:55.157Z,100663.78
2019-02-22T08:55:00.834Z,100681.82
2019-02-22T09:00:07.689Z,100699.80
2019-02-22T09:05:13.882Z,100720.95
2019-02-22T09:10:19.492Z,100737.03
2019-02-22T09:15:25.285Z,100746.38
2019-02-22T09:20:31.452Z,100766.97
2019-02-22T09:25:37.287Z,100759.62
2019-02-22T09:30:42.995Z,100780.06
2019-02-22T09:35:48.941Z,100792.50
2019-02-22T09:40:54.686Z,100793.25
2019-02-22T09:46:00.726Z,100802.59
2019-02-22T09:51:06.657Z,100800.39
2019-02-22T09:56:12.669Z,100825.56
2019-02-22T10:01:18.688Z,100847.61
2019-02-22T10:06:24.290Z,100852.30
2019-02-22T10:11:30.229Z,100854.37
2019-02-22T10:16:36.564Z,100861.47
2019-02-22T10:21:41.362Z,100869.69
2019-02-22T10:26:47.033Z,100875.94
2019-02-22T10:31:53.556Z,100882.06
2019-02-22T10:36:59.234Z,100891.89
2019-02-22T10:42:05.437Z,100898.78
2019-02-22T10:47:11.365Z,100903.55
2019-02-22T10:52:17.429Z,100913.80
2019-02-22T10:57:23.446Z,100917.36
2019-02-22T11:02:31.247Z,100915.93
2019-02-22T11:07:37.384Z,100912.84
2019-02-22T11:12:43.353Z,100921.29
2019-02-22T11:17:49.170Z,100926.59
2019-02-22T11:22:54.864Z,100945.19
2019-02-22T11:28:00.487Z,100946.16
2019-02-22T11:33:06.453Z,100947.22
2019-02-22T11:38:12.227Z,100965.66
2019-02-22T11:43:18.070Z,100960.42
2019-02-22T11:48:24.300Z,100961.14
2019-02-22T11:53:30.235Z,100975.03
2019-02-22T11:58:36.011Z,100963.14
2019-02-22T12:03:41.958Z,100987.50
2019-02-22T12:08:47.892Z,100977.41
2019-02-22T12:13:53.477Z,101000.44
2019-02-22T12:18:59.146Z,100979.21
2019-02-22T12:24:05.021Z,101001.51
2019-02-22T12:29:10.686Z,100989.98
2019-02-22T12:34:14.138Z,101010.73
2019-02-22T12:39:17.568Z,101021.55
2019-02-22T12:44:20.540Z,101031.78
2019-02-22T12:49:23.679Z,101035.10
2019-02-22T12:54:26.673Z,101034.45
2019-02-22T12:59:29.663Z,101045.02
2019-02-22T13:04:32.711Z,101039.40
2019-02-22T13:09:36.904Z,101057.55
2019-02-22T13:14:40.366Z,101075.94
2019-02-22T13:19:43.658Z,101073.25
2019-02-22T13:24:46.637Z,101064.03
2019-02-22T13:29:49.863Z,101098.47
2019-02-22T13:34:52.834Z,101092.24
2019-02-22T13:39:58.636Z,101099.17
2019-02-22T13:45:01.723Z,101098.20
2019-02-22T13:50:07.939Z,101108.89
2019-02-22T13:55:10.896Z,101101.47
2019-02-22T14:00:16.062Z,101118.41
2019-02-22T14:05:19.027Z,101132.14
2019-02-22T14:10:22.319Z,101122.23
2019-02-22T14:15:25.324Z,101118.74
2019-02-22T14:20:28.528Z,101128.63
2019-02-22T14:25:31.669Z,101138.30
2019-02-22T14:30:34.644Z,101155.89
2019-02-22T14:35:37.619Z,101161.72
2019-02-22T14:40:40.626Z,101179.56
2019-02-22T14:45:49.248Z,101164.69
2019-02-22T14:50:48.579Z,101166.89
2019-02-22T14:55:51.628Z,101166.27
2019-02-22T15:00:55.234Z,101173.00
2019-02-22T15:05:58.341Z,101178.36
2019-02-22T15:11:01.616Z,101196.31
2019-02-22T15:16:14.767Z,101212.23
2019-02-22T15:21:17.785Z,101205.63
2019-02-22T15:26:20.777Z,101213.97
2019-02-22T15:31:23.776Z,101230.22
2019-02-22T15:36:27.240Z,101247.31
2019-02-22T15:41:30.612Z,101264.30
2019-02-22T15:46:33.574Z,101269.80
2019-02-22T15:51:36.589Z,101275.55
2019-02-22T15:56:39.538Z,101285.50
2019-02-22T16:01:42.552Z,101310.83
2019-02-22T16:06:45.748Z,101313.47
2019-02-22T16:11:48.725Z,101335.83
2019-02-22T16:16:51.695Z,101336.66
2019-02-22T16:21:55.012Z,101345.13
2019-02-22T16:27:04.050Z,101367.50
2019-02-22T16:32:07.369Z,101384.31
2019-02-22T16:37:10.387Z,101387.55
2019-02-22T16:42:13.600Z,101399.87
2019-02-22T16:47:16.670Z,101420.27
2019-02-22T16:52:19.680Z,101419.05
2019-02-22T16:57:22.641Z,101420.07
2019-02-22T17:02:26.320Z,101438.81
2019-02-22T17:07:29.295Z,101441.84
2019-02-22T17:12:32.767Z,101443.80
2019-02-22T17:17:36.150Z,101443.42
2019-02-22T17:22:39.148Z,101455.91
2019-02-22T17:27:42.181Z,101462.95
2019-02-22T17:32:45.244Z,101471.84
2019-02-22T17:37:48.478Z,101476.81
2019-02-22T17:42:51.479Z,101493.64
2019-02-22T17:47:54.596Z,101486.59
2019-02-22T17:52:57.578Z,101488.03
2019-02-22T17:58:00.777Z,101498.35
2019-02-22T18:03:03.838Z,101492.25
2019-02-22T18:08:06.805Z,101508.27
2019-02-22T18:13:09.867Z,101520.80
2019-02-22T18:18:12.811Z,101530.76
2019-02-22T18:23:15.898Z,101542.58
2019-02-22T18:28:18.948Z,101550.27
2019-02-22T18:33:22.357Z,101561.48
2019-02-22T18:38:25.357Z,101565.18
2019-02-22T18:43:28.330Z,101565.97
2019-02-22T18:48:31.455Z,101578.72
2019-02-22T18:53:34.592Z,101594.53
2019-02-22T18:58:37.711Z,101595.17
2019-02-22T19:03:40.725Z,101613.95
2019-02-22T19:08:43.747Z,101614.87
2019-02-22T19:13:47.143Z,101622.73
2019-02-22T19:18:50.634Z,101640.25
2019-02-22T19:23:53.979Z,101649.87
2019-02-22T19:28:56.942Z,101664.58
2019-02-22T19:33:59.975Z,101691.72
2019-02-22T19:39:03.808Z,101682.29
2019-02-22T19:44:06.822Z,101693.09
2019-02-22T19:49:09.923Z,101703.53
2019-02-22T19:54:12.981Z,101707.87
2019-02-22T19:59:16.153Z,101722.58
2019-02-22T20:04:19.147Z,101732.42
2019-02-22T20:09:22.216Z,101745.76
2019-02-22T20:14:25.194Z,101748.25
2019-02-22T20:19:28.226Z,101759.95
2019-02-22T20:24:31.261Z,101764.18
2019-02-22T20:29:36.153Z,101772.30
2019-02-22T20:34:39.264Z,101779.88
2019-02-22T20:39:42.729Z,101785.28
2019-02-22T20:44:45.732Z,101788.75
2019-02-22T20:49:48.807Z,101798.08
2019-02-22T20:54:52.263Z,101793.20
2019-02-22T20:59:55.695Z,101799.37
2019-02-22T21:04:58.885Z,101808.12
2019-02-22T21:10:02.132Z,101814.09
2019-02-22T21:15:06.438Z,101811.00
2019-02-22T21:20:10.516Z,101815.91
2019-02-22T21:25:13.648Z,101826.84
2019-02-22T21:30:16.833Z,101838.78
2019-02-22T21:35:19.878Z,101850.16
2019-02-22T21:40:23.024Z,101863.77
2019-02-22T21:45:26.251Z,101872.36
2019-02-22T21:50:29.306Z,101875.67
2019-02-22T21:55:32.343Z,101886.08
2019-02-22T22:00:35.471Z,101883.95
2019-02-22T22:10:41.619Z,101908.77
2019-02-22T22:15:44.715Z,101916.83
2019-02-22T22:20:47.799Z,101905.95
2019-02-22T22:25:50.894Z,101917.14
2019-02-22T22:30:53.893Z,101910.89
2019-02-22T22:35:56.882Z,101904.13
2019-02-22T22:40:59.949Z,101900.60
2019-02-22T22:46:02.993Z,101901.02
2019-02-22T22:51:06.093Z,101904.13
2019-02-22T22:56:09.490Z,101903.11
2019-02-22T23:01:17.952Z,101912.67
2019-02-22T23:06:21.060Z,101905.36
2019-02-22T23:11:24.269Z,101913.39
2019-02-22T23:16:27.426Z,101912.63
2019-02-22T23:21:30.757Z,101917.80
2019-02-22T23:26:34.312Z,101926.91
2019-02-22T23:31:37.688Z,101930.41
2019-02-22T23:36:40.741Z,101927.53
2019-02-22T23:41:44.159Z,101929.98
2019-02-22T23:46:47.394Z,101933.97
2019-02-22T23:51:50.448Z,101932.36
2019-02-22T23:56:53.588Z,101939.70
